createdAt,value
2019-05-05T00:00:15.997Z,13.00
2019-05-05T00:02:55.233Z,15.83
2019-05-05T00:05:25.393Z,12.07
2019-05-05T00:07:54.177Z,18.65
2019-05-05T00:10:40.500Z,17.48
2019-05-05T00:13:14.930Z,14.50
2019-05-05T00:15:55.083Z,14.63
2019-05-05T00:18:25.404Z,15.53
2019-05-05T00:20:55.215Z,15.48
2019-05-05T00:23:25.099Z,16.30
2019-05-05T00:25:55.259Z,14.55
2019-05-05T00:28:24.873Z,15.48
2019-05-05T00:30:55.379Z,15.13
2019-05-05T00:33:24.925Z,14.03
2019-05-05T00:35:54.486Z,13.85
2019-05-05T00:38:24.927Z,15.48
2019-05-05T00:40:54.984Z,17.12
2019-05-05T00:43:25.240Z,16.93
2019-05-05T00:45:55.706Z,15.83
2019-05-05T00:48:35.110Z,12.80
2019-05-05T00:51:04.668Z,16.07
2019-05-05T00:53:34.279Z,18.52
2019-05-05T00:56:04.991Z,17.00
2019-05-05T00:58:35.349Z,13.40
2019-05-05T01:01:22.188Z,14.47
2019-05-05T01:03:50.691Z,17.10
2019-05-05T01:06:34.522Z,17.37
2019-05-05T01:09:04.324Z,14.53
2019-05-05T01:11:32.730Z,18.20
2019-05-05T01:14:01.132Z,19.73
2019-05-05T01:16:29.552Z,14.25
2019-05-05T01:18:57.996Z,18.27
2019-05-05T01:21:26.380Z,15.72
2019-05-05T01:23:54.968Z,18.48
2019-05-05T01:26:24.825Z,17.15
2019-05-05T01:28:53.529Z,16.00
2019-05-05T01:31:22.310Z,16.70
2019-05-05T01:33:54.112Z,19.70
2019-05-05T01:36:24.182Z,18.15
2019-05-05T01:38:55.219Z,15.13
2019-05-05T01:41:34.879Z,16.87
2019-05-05T01:44:04.862Z,17.32
2019-05-05T01:46:35.333Z,14.78
2019-05-05T01:49:05.383Z,19.12
2019-05-05T01:51:35.474Z,14.10
2019-05-05T01:54:05.207Z,18.65
2019-05-05T01:56:35.183Z,15.70
2019-05-05T01:59:05.207Z,19.02
2019-05-05T02:01:35.210Z,16.00
2019-05-05T02:04:05.500Z,17.40
2019-05-05T02:06:34.993Z,17.30
2019-05-05T02:09:06.043Z,16.77
2019-05-05T02:11:35.339Z,17.32
2019-05-05T02:14:05.085Z,18.05
2019-05-05T02:16:34.700Z,15.45
2019-05-05T02:19:05.040Z,19.25
2019-05-05T02:21:35.327Z,16.17
2019-05-05T02:24:05.194Z,17.37
2019-05-05T02:26:34.979Z,20.72
2019-05-05T02:29:24.761Z,23.98
2019-05-05T02:32:11.273Z,17.42
2019-05-05T02:34:41.422Z,19.42
2019-05-05T02:37:09.833Z,16.35
2019-05-05T02:39:44.840Z,17.73
2019-05-05T02:42:08.946Z,19.15
2019-05-05T02:44:37.893Z,17.75
2019-05-05T02:47:15.509Z,17.25
2019-05-05T02:49:45.386Z,16.25
2019-05-05T02:52:15.254Z,17.27
2019-05-05T02:54:44.536Z,17.73
2019-05-05T02:57:14.392Z,15.72
2019-05-05T02:59:44.876Z,18.85
2019-05-05T03:02:15.116Z,17.05
2019-05-05T03:04:44.588Z,19.00
2019-05-05T03:07:15.848Z,16.48
2019-05-05T03:09:45.508Z,14.58
2019-05-05T03:12:15.659Z,17.80
2019-05-05T03:14:45.236Z,17.55
2019-05-05T03:17:14.486Z,16.95
2019-05-05T03:19:44.487Z,16.70
2019-05-05T03:22:14.292Z,14.73
2019-05-05T03:24:44.681Z,16.80
2019-05-05T03:27:14.349Z,17.77
2019-05-05T03:29:44.179Z,17.37
2019-05-05T03:32:16.048Z,17.62
2019-05-05T03:34:44.500Z,15.63
2019-05-05T03:37:14.611Z,17.60
2019-05-05T03:39:44.820Z,18.17
2019-05-05T03:42:17.737Z,17.00
2019-05-05T03:44:51.084Z,12.50
2019-05-05T03:47:19.764Z,16.55
2019-05-05T03:49:48.191Z,15.55
2019-05-05T03:52:16.590Z,15.18
2019-05-05T03:54:45.497Z,16.20
2019-05-05T03:57:14.582Z,15.45
2019-05-05T03:59:44.435Z,17.73
2019-05-05T04:02:23.860Z,17.80
2019-05-05T04:04:55.011Z,15.00
2019-05-05T04:07:24.304Z,13.88
2019-05-05T04:09:54.264Z,15.15
2019-05-05T04:12:24.172Z,16.73
2019-05-05T04:14:54.621Z,17.82
2019-05-05T04:17:30.602Z,15.00
2019-05-05T04:20:03.818Z,15.72
2019-05-05T04:22:34.367Z,17.20
2019-05-05T04:25:04.605Z,16.30
2019-05-05T04:27:34.277Z,17.42
2019-05-05T04:30:03.925Z,16.05
2019-05-05T04:32:32.438Z,16.52
2019-05-05T04:35:00.853Z,17.45
2019-05-05T04:37:29.257Z,17.15
2019-05-05T04:39:57.669Z,17.65
2019-05-05T04:42:26.077Z,16.20
2019-05-05T04:44:54.500Z,18.92
2019-05-05T04:47:25.075Z,21.02
2019-05-05T04:50:04.410Z,18.80
2019-05-05T04:52:34.295Z,19.48
2019-05-05T04:55:03.980Z,18.25
2019-05-05T04:57:32.608Z,18.32
2019-05-05T05:00:01.011Z,21.42
2019-05-05T05:02:31.069Z,16.05
2019-05-05T05:05:14.498Z,20.12
2019-05-05T05:07:43.906Z,19.27
2019-05-05T05:10:13.864Z,18.50
2019-05-05T05:12:43.565Z,18.77
2019-05-05T05:15:14.597Z,22.58
2019-05-05T05:17:44.543Z,19.30
2019-05-05T05:20:14.164Z,19.10
2019-05-05T05:22:44.005Z,20.65
2019-05-05T05:25:13.598Z,20.25
2019-05-05T05:27:44.146Z,19.95
2019-05-05T05:30:13.705Z,19.48
2019-05-05T05:32:44.376Z,19.52
2019-05-05T05:35:14.117Z,18.30
2019-05-05T05:37:44.578Z,19.32
2019-05-05T05:40:20.537Z,18.37
2019-05-05T05:42:48.954Z,20.92
2019-05-05T05:45:28.084Z,19.52
2019-05-05T05:48:00.836Z,20.05
2019-05-05T05:50:30.892Z,23.38
2019-05-05T05:52:59.383Z,19.67
2019-05-05T05:55:27.814Z,18.77
2019-05-05T05:57:56.216Z,20.95
2019-05-05T06:00:24.627Z,19.00
2019-05-05T06:02:54.583Z,20.20
2019-05-05T06:05:23.907Z,19.67
2019-05-05T06:07:54.463Z,19.10
2019-05-05T06:10:27.042Z,20.32
2019-05-05T06:12:54.601Z,21.23
2019-05-05T06:15:24.444Z,25.12
2019-05-05T06:17:54.015Z,18.40
2019-05-05T06:20:23.893Z,18.50
2019-05-05T06:22:53.528Z,19.73
2019-05-05T06:25:26.276Z,18.73
2019-05-05T06:27:54.041Z,19.42
2019-05-05T06:30:24.370Z,18.80
2019-05-05T06:32:54.447Z,18.32
2019-05-05T06:35:24.445Z,21.85
2019-05-05T06:37:54.260Z,18.85
2019-05-05T06:40:34.081Z,17.92
2019-05-05T06:43:06.268Z,19.42
2019-05-05T06:45:43.867Z,20.92
2019-05-05T06:48:13.561Z,19.05
2019-05-05T06:50:43.813Z,19.40
2019-05-05T06:53:13.529Z,17.65
2019-05-05T06:55:44.285Z,17.25
2019-05-05T06:58:13.662Z,18.27
2019-05-05T07:00:44.143Z,18.23
2019-05-05T07:03:13.933Z,18.82
2019-05-05T07:05:43.717Z,18.20
2019-05-05T07:08:13.841Z,17.57
2019-05-05T07:10:44.385Z,18.57
2019-05-05T07:13:14.002Z,17.32
2019-05-05T07:15:43.801Z,20.52
2019-05-05T07:18:14.197Z,16.80
2019-05-05T07:20:44.059Z,22.07
2019-05-05T07:23:14.515Z,14.95
2019-05-05T07:25:45.677Z,15.32
2019-05-05T07:28:14.691Z,16.27
2019-05-05T07:30:44.278Z,18.62
2019-05-05T07:33:14.908Z,21.70
2019-05-05T07:35:55.360Z,30.00
2019-05-05T07:38:15.079Z,24.43
2019-05-05T07:40:43.960Z,34.30
2019-05-05T07:43:14.498Z,27.65
2019-05-05T07:45:44.611Z,17.32
2019-05-05T07:48:13.864Z,14.75
2019-05-05T07:50:45.023Z,20.65
2019-05-05T07:53:17.587Z,18.20
2019-05-05T07:55:43.666Z,18.73
2019-05-05T07:58:13.921Z,15.78
2019-05-05T08:00:43.662Z,19.37
2019-05-05T08:03:14.166Z,17.48
2019-05-05T08:05:44.230Z,17.85
2019-05-05T08:08:13.874Z,17.40
2019-05-05T08:10:43.709Z,16.77
2019-05-05T08:13:14.065Z,16.62
2019-05-05T08:15:56.312Z,15.20
2019-05-05T08:18:17.806Z,17.32
2019-05-05T08:20:47.864Z,15.45
2019-05-05T08:23:29.111Z,17.02
2019-05-05T08:25:58.644Z,16.37
2019-05-05T08:28:28.699Z,18.40
2019-05-05T08:30:58.745Z,14.33
2019-05-05T08:33:27.173Z,15.30
2019-05-05T08:35:55.638Z,15.75
2019-05-05T08:38:24.309Z,14.90
2019-05-05T08:40:54.340Z,18.90
2019-05-05T08:43:24.135Z,19.87
2019-05-05T08:45:52.715Z,15.10
2019-05-05T08:48:21.121Z,17.67
2019-05-05T08:50:49.538Z,14.60
2019-05-05T08:53:17.945Z,13.15
2019-05-05T08:55:46.365Z,16.42
2019-05-05T08:58:15.019Z,15.98
2019-05-05T09:00:44.433Z,17.10
2019-05-05T09:03:13.935Z,13.98
2019-05-05T09:05:43.731Z,14.90
2019-05-05T09:08:13.793Z,17.17
2019-05-05T09:10:44.596Z,14.85
2019-05-05T09:13:14.283Z,16.00
2019-05-05T09:15:44.332Z,17.20
2019-05-05T09:18:14.114Z,14.18
2019-05-05T09:20:44.524Z,13.72
2019-05-05T09:23:14.757Z,17.98
2019-05-05T09:25:47.556Z,13.32
2019-05-05T09:28:23.867Z,13.95
2019-05-05T09:30:53.644Z,14.00
2019-05-05T09:33:24.603Z,14.18
2019-05-05T09:35:54.159Z,14.75
2019-05-05T09:38:23.871Z,12.90
2019-05-05T09:40:54.256Z,13.22
2019-05-05T09:43:24.053Z,15.08
2019-05-05T09:45:54.556Z,15.32
2019-05-05T09:48:24.297Z,13.13
2019-05-05T09:50:54.102Z,13.93
2019-05-05T09:53:23.784Z,15.95
2019-05-05T09:55:54.612Z,14.47
2019-05-05T09:58:24.209Z,18.17
2019-05-05T10:00:54.557Z,15.53
2019-05-05T10:03:22.979Z,13.70
2019-05-05T10:05:51.394Z,13.05
2019-05-05T10:08:19.796Z,12.33
2019-05-05T10:10:48.196Z,13.85
2019-05-05T10:13:16.630Z,13.88
2019-05-05T10:15:45.112Z,15.38
2019-05-05T10:18:14.227Z,14.05
2019-05-05T10:20:42.797Z,13.80
2019-05-05T10:23:11.216Z,14.60
2019-05-05T10:25:47.053Z,15.63
2019-05-05T10:28:15.470Z,14.30
2019-05-05T10:30:43.869Z,14.53
2019-05-05T10:33:14.293Z,12.33
2019-05-05T10:35:43.756Z,11.18
2019-05-05T10:38:14.114Z,12.00
2019-05-05T10:40:44.438Z,12.10
2019-05-05T10:43:14.668Z,12.90
2019-05-05T10:45:44.085Z,15.40
2019-05-05T10:48:14.417Z,13.28
2019-05-05T10:50:44.453Z,12.88
2019-05-05T10:53:13.617Z,12.00
2019-05-05T10:55:42.292Z,13.95
2019-05-05T10:58:10.702Z,13.10
2019-05-05T11:00:44.879Z,14.30
2019-05-05T11:03:14.865Z,11.30
2019-05-05T11:05:45.147Z,13.72
2019-05-05T11:08:14.082Z,11.28
2019-05-05T11:10:44.923Z,11.33
2019-05-05T11:13:13.169Z,11.83
2019-05-05T11:15:41.575Z,12.03
2019-05-05T11:18:09.982Z,15.38
2019-05-05T11:20:38.388Z,12.63
2019-05-05T11:23:06.862Z,13.80
2019-05-05T11:25:35.315Z,16.50
2019-05-05T11:28:05.353Z,18.60
2019-05-05T11:30:36.390Z,15.18
2019-05-05T11:33:14.258Z,15.65
2019-05-05T11:35:47.224Z,15.28
2019-05-05T11:38:15.627Z,16.15
2019-05-05T11:40:44.103Z,14.45
2019-05-05T11:43:14.251Z,17.55
2019-05-05T11:45:46.117Z,16.50
2019-05-05T11:48:14.909Z,15.32
2019-05-05T11:50:43.741Z,15.50
2019-05-05T11:53:14.372Z,13.08
2019-05-05T11:55:44.255Z,12.68
2019-05-05T11:58:14.305Z,12.33
2019-05-05T12:00:43.850Z,12.60
2019-05-05T12:03:14.361Z,10.93
2019-05-05T12:05:44.428Z,11.70
2019-05-05T12:08:15.905Z,9.68
2019-05-05T12:10:45.971Z,9.38
2019-05-05T12:13:14.873Z,8.00
2019-05-05T12:15:45.004Z,8.08
2019-05-05T12:18:14.361Z,8.80
2019-05-05T12:20:44.050Z,8.78
2019-05-05T12:23:12.873Z,10.55
2019-05-05T12:25:55.005Z,14.80
2019-05-05T12:28:26.051Z,12.23
2019-05-05T12:30:56.437Z,10.25
2019-05-05T12:33:24.869Z,7.90
2019-05-05T12:35:53.961Z,8.73
2019-05-05T12:38:24.125Z,10.30
2019-05-05T12:40:53.520Z,12.68
2019-05-05T12:43:24.540Z,12.98
2019-05-05T12:46:04.518Z,13.20
2019-05-05T12:48:43.910Z,22.07
2019-05-05T12:51:14.611Z,12.40
2019-05-05T12:53:42.631Z,10.50
2019-05-05T12:56:11.020Z,10.28
2019-05-05T12:58:39.444Z,10.10
2019-05-05T13:01:09.491Z,10.95
2019-05-05T13:03:38.089Z,12.07
2019-05-05T13:06:06.555Z,15.85
2019-05-05T13:08:35.326Z,15.05
2019-05-05T13:11:04.118Z,12.18
2019-05-05T13:13:34.556Z,17.02
2019-05-05T13:16:04.236Z,14.93
2019-05-05T13:18:33.911Z,16.42
2019-05-05T13:21:18.974Z,12.20
2019-05-05T13:23:49.025Z,10.13
2019-05-05T13:26:23.677Z,11.60
2019-05-05T13:28:54.158Z,11.78
2019-05-05T13:31:22.359Z,9.45
2019-05-05T13:33:50.781Z,9.10
2019-05-05T13:36:19.217Z,8.33
2019-05-05T13:38:47.658Z,11.15
2019-05-05T13:41:16.073Z,12.85
2019-05-05T13:43:44.586Z,11.00
2019-05-05T13:46:14.625Z,9.40
2019-05-05T13:48:44.424Z,11.93
2019-05-05T13:51:14.789Z,13.50
2019-05-05T13:53:44.719Z,11.97
2019-05-05T13:56:15.401Z,12.45
2019-05-05T13:58:43.852Z,15.88
2019-05-05T14:01:14.310Z,11.25
2019-05-05T14:03:44.583Z,14.50
2019-05-05T14:06:13.821Z,12.93
2019-05-05T14:08:44.623Z,14.68
2019-05-05T14:11:14.188Z,11.03
2019-05-05T14:13:45.494Z,10.43
2019-05-05T14:16:14.369Z,11.48
2019-05-05T14:18:42.733Z,12.78
2019-05-05T14:21:11.131Z,12.25
2019-05-05T14:23:57.696Z,10.10
2019-05-05T14:26:28.436Z,12.88
2019-05-05T14:28:56.265Z,10.93
2019-05-05T14:31:29.038Z,13.00
2019-05-05T14:33:59.082Z,10.28
2019-05-05T14:36:38.443Z,12.40
2019-05-05T14:39:10.053Z,10.48
2019-05-05T14:41:38.477Z,10.50
2019-05-05T14:44:06.885Z,8.15
2019-05-05T14:46:35.304Z,9.05
2019-05-05T14:49:05.671Z,9.45
2019-05-05T14:51:34.306Z,11.15
2019-05-05T14:54:04.544Z,10.45
2019-05-05T14:56:36.569Z,11.05
2019-05-05T14:59:03.812Z,9.08
2019-05-05T15:01:34.339Z,9.43
2019-05-05T15:04:04.324Z,10.50
2019-05-05T15:06:40.118Z,9.40
2019-05-05T15:09:13.928Z,9.60
2019-05-05T15:11:53.842Z,10.70
2019-05-05T15:14:24.347Z,8.93
2019-05-05T15:16:54.308Z,8.68
2019-05-05T15:19:23.802Z,10.50
2019-05-05T15:21:53.633Z,9.20
2019-05-05T15:24:24.487Z,8.63
2019-05-05T15:26:54.875Z,7.70
2019-05-05T15:29:24.984Z,9.88
2019-05-05T15:31:53.889Z,7.15
2019-05-05T15:34:24.046Z,8.18
2019-05-05T15:36:54.594Z,10.63
2019-05-05T15:39:24.571Z,8.85
2019-05-05T15:41:54.239Z,11.05
2019-05-05T15:44:24.143Z,9.83
2019-05-05T15:46:57.309Z,9.13
2019-05-05T15:49:23.391Z,8.10
2019-05-05T15:51:53.807Z,9.25
2019-05-05T15:54:23.658Z,10.63
2019-05-05T15:57:02.959Z,9.23
2019-05-05T15:59:23.913Z,9.13
2019-05-05T16:01:54.727Z,8.30
2019-05-05T16:04:23.637Z,9.53
2019-05-05T16:06:54.080Z,9.15
2019-05-05T16:09:22.603Z,8.03
2019-05-05T16:11:51.060Z,9.68
2019-05-05T16:14:19.911Z,8.70
2019-05-05T16:17:04.524Z,10.00
2019-05-05T16:19:34.035Z,8.25
2019-05-05T16:22:04.101Z,7.62
2019-05-05T16:24:36.465Z,11.03
2019-05-05T16:27:18.368Z,12.13
2019-05-05T16:29:34.774Z,8.78
2019-05-05T16:32:05.446Z,9.58
2019-05-05T16:34:33.736Z,8.75
2019-05-05T16:37:03.870Z,12.05
2019-05-05T16:39:33.569Z,10.75
2019-05-05T16:42:02.169Z,9.03
2019-05-05T16:44:30.605Z,9.73
2019-05-05T16:46:59.014Z,7.67
2019-05-05T16:49:27.428Z,9.78
2019-05-05T16:51:57.488Z,11.85
2019-05-05T16:54:27.579Z,16.00
2019-05-05T16:56:56.006Z,8.23
2019-05-05T16:59:24.420Z,18.55
2019-05-05T17:01:54.112Z,17.35
2019-05-05T17:04:24.371Z,19.60
2019-05-05T17:06:54.706Z,5.67
2019-05-05T17:09:24.007Z,11.00
2019-05-05T17:12:10.908Z,10.28
2019-05-05T17:14:41.819Z,5.58
2019-05-05T17:17:28.192Z,19.80
2019-05-05T17:19:58.242Z,7.67
2019-05-05T17:22:28.315Z,13.22
2019-05-05T17:24:56.960Z,5.58
2019-05-05T17:27:25.416Z,10.28
2019-05-05T17:29:53.980Z,21.30
2019-05-05T17:32:24.756Z,16.02
2019-05-05T17:34:54.158Z,12.75
2019-05-05T17:37:23.919Z,6.97
2019-05-05T17:39:54.592Z,7.62
2019-05-05T17:42:24.941Z,12.33
2019-05-05T17:45:00.716Z,9.68
2019-05-05T17:47:30.757Z,13.62
2019-05-05T17:50:04.143Z,11.73
2019-05-05T17:52:47.001Z,14.15
2019-05-05T17:55:35.163Z,8.70
2019-05-05T17:58:11.045Z,5.50
2019-05-05T18:00:43.480Z,6.33
2019-05-05T18:03:12.089Z,6.78
2019-05-05T18:06:03.295Z,5.40
2019-05-05T18:08:35.709Z,6.83
2019-05-05T18:11:27.401Z,8.05
2019-05-05T18:14:07.217Z,9.38
2019-05-05T18:16:35.942Z,7.67
2019-05-05T18:19:04.683Z,5.85
2019-05-05T18:21:34.771Z,5.55
2019-05-05T18:24:03.576Z,5.95
2019-05-05T18:26:34.068Z,8.70
2019-05-05T18:29:03.801Z,7.85
2019-05-05T18:31:34.264Z,4.92
2019-05-05T18:34:04.023Z,6.30
2019-05-05T18:36:36.571Z,9.38
2019-05-05T18:39:07.713Z,9.73
2019-05-05T18:41:55.560Z,5.83
2019-05-05T18:44:33.485Z,5.40
2019-05-05T18:47:14.826Z,8.40
2019-05-05T18:49:43.203Z,7.37
2019-05-05T18:52:13.858Z,6.72
2019-05-05T18:54:44.078Z,4.85
2019-05-05T18:57:13.823Z,8.53
2019-05-05T18:59:44.787Z,7.08
2019-05-05T19:02:34.677Z,7.08
2019-05-05T19:05:23.693Z,5.78
2019-05-05T19:08:14.293Z,6.37
2019-05-05T19:10:44.518Z,5.62
2019-05-05T19:13:14.374Z,6.83
2019-05-05T19:15:44.290Z,6.22
2019-05-05T19:18:14.190Z,10.70
2019-05-05T19:20:54.507Z,9.33
2019-05-05T19:23:24.410Z,8.33
2019-05-05T19:25:56.021Z,10.03
2019-05-05T19:28:25.507Z,7.22
2019-05-05T19:30:55.713Z,6.45
2019-05-05T19:33:25.760Z,6.25
2019-05-05T19:35:55.941Z,9.10
2019-05-05T19:38:25.788Z,10.78
2019-05-05T19:40:56.254Z,8.30
2019-05-05T19:43:26.520Z,8.38
2019-05-05T19:45:56.637Z,8.73
2019-05-05T19:48:28.140Z,9.25
2019-05-05T19:51:05.422Z,8.93
2019-05-05T19:53:35.532Z,12.25
2019-05-05T19:56:05.440Z,11.12
2019-05-05T19:58:36.605Z,7.80
2019-05-05T20:01:06.720Z,9.18
2019-05-05T20:03:36.796Z,10.30
2019-05-05T20:06:06.742Z,9.68
2019-05-05T20:08:41.616Z,16.65
2019-05-05T20:11:10.679Z,7.78
2019-05-05T20:13:40.309Z,11.08
2019-05-05T20:16:11.133Z,10.13
2019-05-05T20:18:40.835Z,10.48
2019-05-05T20:21:09.939Z,9.88
2019-05-05T20:23:38.516Z,9.13
2019-05-05T20:26:07.153Z,9.38
2019-05-05T20:28:35.785Z,6.58
2019-05-05T20:31:04.462Z,7.55
2019-05-05T20:33:34.727Z,6.97
2019-05-05T20:36:04.867Z,8.30
2019-05-05T20:38:34.959Z,8.53
2019-05-05T20:41:14.475Z,9.15
2019-05-05T20:43:44.832Z,8.80
2019-05-05T20:46:13.792Z,6.78
2019-05-05T20:48:44.642Z,5.87
2019-05-05T20:51:13.787Z,8.65
2019-05-05T20:53:45.165Z,7.95
2019-05-05T20:56:14.925Z,6.47
2019-05-05T20:58:43.996Z,6.12
2019-05-05T21:01:13.995Z,7.97
2019-05-05T21:03:42.657Z,8.80
2019-05-05T21:06:11.062Z,11.35
2019-05-05T21:08:39.473Z,8.60
2019-05-05T21:11:07.884Z,8.55
2019-05-05T21:13:36.288Z,10.60
2019-05-05T21:16:04.749Z,8.43
2019-05-05T21:18:34.745Z,9.85
2019-05-05T21:21:05.043Z,12.23
2019-05-05T21:23:35.174Z,10.13
2019-05-05T21:26:05.213Z,9.65
2019-05-05T21:28:33.808Z,12.13
2019-05-05T21:31:02.223Z,10.78
2019-05-05T21:33:30.653Z,10.23
2019-05-05T21:35:59.085Z,10.68
2019-05-05T21:38:27.469Z,11.57
2019-05-05T21:40:55.889Z,10.58
2019-05-05T21:43:24.306Z,10.70
2019-05-05T21:45:53.768Z,10.30
2019-05-05T21:48:24.236Z,7.60
2019-05-05T21:50:54.169Z,11.03
2019-05-05T21:53:27.024Z,9.58
2019-05-05T21:56:04.320Z,10.90
2019-05-05T21:58:34.636Z,8.38
2019-05-05T22:01:04.809Z,12.40
2019-05-05T22:03:34.887Z,9.08
2019-05-05T22:06:03.830Z,9.83
2019-05-05T22:08:33.623Z,11.75
2019-05-05T22:11:03.952Z,8.63
2019-05-05T22:13:36.147Z,14.15
2019-05-05T22:16:04.063Z,11.85
2019-05-05T22:18:33.681Z,11.95
2019-05-05T22:21:04.443Z,13.30
2019-05-05T22:23:34.014Z,12.45
2019-05-05T22:26:04.159Z,10.05
2019-05-05T22:28:34.070Z,9.23
2019-05-05T22:31:04.695Z,9.65
2019-05-05T22:33:34.023Z,10.85
2019-05-05T22:36:04.497Z,12.53
2019-05-05T22:38:34.027Z,13.10
2019-05-05T22:41:02.642Z,11.95
2019-05-05T22:43:31.336Z,10.25
2019-05-05T22:45:59.743Z,9.83
2019-05-05T22:48:28.153Z,10.15
2019-05-05T22:50:56.552Z,11.88
2019-05-05T22:53:24.984Z,11.63
2019-05-05T22:55:53.504Z,12.35
2019-05-05T22:58:23.885Z,10.20
2019-05-05T23:00:54.807Z,12.28
2019-05-05T23:03:24.801Z,11.93
2019-05-05T23:05:54.894Z,10.43
2019-05-05T23:08:24.302Z,12.15
2019-05-05T23:10:54.410Z,10.03
2019-05-05T23:13:23.088Z,10.50
2019-05-05T23:15:58.712Z,9.30
2019-05-05T23:18:28.528Z,11.50
2019-05-05T23:21:15.967Z,11.50
2019-05-05T23:24:00.998Z,11.18
2019-05-05T23:26:31.056Z,15.48
2019-05-05T23:28:59.481Z,12.28
2019-05-05T23:31:27.892Z,11.30
2019-05-05T23:33:56.396Z,11.43
2019-05-05T23:36:24.800Z,11.88
2019-05-05T23:38:54.945Z,12.85
2019-05-05T23:41:23.941Z,11.35
2019-05-05T23:43:54.418Z,11.73
2019-05-05T23:46:24.133Z,11.10
2019-05-05T23:48:53.678Z,12.20
2019-05-05T23:51:24.213Z,10.25
2019-05-05T23:53:54.836Z,12.70
2019-05-05T23:56:24.058Z,10.88
2019-05-05T23:58:55.539Z,11.85
